sensor_id;sensor_type;location;lat;lon;timestamp;temperature;humidity
6696;DHT22;3385;48.928;10.330;2022-07-23T00:01:16;22.60;99.90
6696;DHT22;3385;48.928;10.330;2022-07-23T00:03:41;22.60;99.90
6696;DHT22;3385;48.928;10.330;2022-07-23T00:06:07;22.60;99.90
6696;DHT22;3385;48.928;10.330;2022-07-23T00:08:33;22.70;99.90
6696;DHT22;3385;48.928;10.330;2022-07-23T00:10:58;22.80;99.90
6696;DHT22;3385;48.928;10.330;2022-07-23T00:13:26;22.80;99.90
6696;DHT22;3385;48.928;10.330;2022-07-23T00:15:52;22.80;99.90
6696;DHT22;3385;48.928;10.330;2022-07-23T00:18:18;22.90;99.90
6696;DHT22;3385;48.928;10.330;2022-07-23T00:20:44;23.00;99.90
6696;DHT22;3385;48.928;10.330;2022-07-23T00:23:10;23.00;99.90
6696;DHT22;3385;48.928;10.330;2022-07-23T00:25:36;23.10;99.90
6696;DHT22;3385;48.928;10.330;2022-07-23T00:28:02;23.30;99.90
6696;DHT22;3385;48.928;10.330;2022-07-23T00:30:28;23.60;99.90
6696;DHT22;3385;48.928;10.330;2022-07-23T00:33:03;23.80;99.90
6696;DHT22;3385;48.928;10.330;2022-07-23T00:35:31;24.00;99.90
6696;DHT22;3385;48.928;10.330;2022-07-23T00:37:58;24.20;99.90
6696;DHT22;3385;48.928;10.330;2022-07-23T00:40:25;24.30;99.90
6696;DHT22;3385;48.928;10.330;2022-07-23T00:42:51;24.50;99.90
6696;DHT22;3385;48.928;10.330;2022-07-23T00:45:17;24.50;99.30
6696;DHT22;3385;48.928;10.330;2022-07-23T00:47:42;24.50;99.20
6696;DHT22;3385;48.928;10.330;2022-07-23T00:50:09;24.50;98.70
6696;DHT22;3385;48.928;10.330;2022-07-23T00:52:38;24.40;98.10
6696;DHT22;3385;48.928;10.330;2022-07-23T00:55:06;24.30;97.60
6696;DHT22;3385;48.928;10.330;2022-07-23T00:57:32;24.30;97.30
6696;DHT22;3385;48.928;10.330;2022-07-23T00:59:58;24.30;97.10
6696;DHT22;3385;48.928;10.330;2022-07-23T01:02:25;24.30;97.00
6696;DHT22;3385;48.928;10.330;2022-07-23T01:04:52;24.20;97.00
6696;DHT22;3385;48.928;10.330;2022-07-23T01:07:18;24.10;97.00
6696;DHT22;3385;48.928;10.330;2022-07-23T01:09:45;24.10;97.30
6696;DHT22;3385;48.928;10.330;2022-07-23T01:12:11;24.10;97.60
6696;DHT22;3385;48.928;10.330;2022-07-23T01:14:37;24.00;97.60
6696;DHT22;3385;48.928;10.330;2022-07-23T01:17:04;24.00;98.10
6696;DHT22;3385;48.928;10.330;2022-07-23T01:19:32;23.90;98.10
6696;DHT22;3385;48.928;10.330;2022-07-23T01:22:04;23.80;98.50
6696;DHT22;3385;48.928;10.330;2022-07-23T01:24:31;23.70;99.10
6696;DHT22;3385;48.928;10.330;2022-07-23T01:26:56;23.60;99.50
6696;DHT22;3385;48.928;10.330;2022-07-23T01:29:22;23.60;99.80
6696;DHT22;3385;48.928;10.330;2022-07-23T01:31:48;23.50;99.90
6696;DHT22;3385;48.928;10.330;2022-07-23T01:34:14;23.40;99.70
6696;DHT22;3385;48.928;10.330;2022-07-23T01:36:40;23.40;99.90
6696;DHT22;3385;48.928;10.330;2022-07-23T01:39:08;23.40;99.90
6696;DHT22;3385;48.928;10.330;2022-07-23T01:41:40;23.30;99.90
6696;DHT22;3385;48.928;10.330;2022-07-23T01:44:06;23.30;99.90
6696;DHT22;3385;48.928;10.330;2022-07-23T01:46:32;23.20;99.90
6696;DHT22;3385;48.928;10.330;2022-07-23T01:48:59;23.10;99.90
6696;DHT22;3385;48.928;10.330;2022-07-23T01:51:25;23.00;99.90
6696;DHT22;3385;48.928;10.330;2022-07-23T01:53:50;23.00;99.90
6696;DHT22;3385;48.928;10.330;2022-07-23T01:56:16;22.90;99.90
6696;DHT22;3385;48.928;10.330;2022-07-23T01:58:44;22.60;99.90
6696;DHT22;3385;48.928;10.330;2022-07-23T02:01:10;22.30;99.90
6696;DHT22;3385;48.928;10.330;2022-07-23T02:03:35;21.90;99.90
6696;DHT22;3385;48.928;10.330;2022-07-23T02:06:01;21.60;99.90
6696;DHT22;3385;48.928;10.330;2022-07-23T02:08:27;21.30;99.90
6696;DHT22;3385;48.928;10.330;2022-07-23T02:10:53;21.20;99.90
6696;DHT22;3385;48.928;10.330;2022-07-23T02:13:21;21.10;99.90
6696;DHT22;3385;48.928;10.330;2022-07-23T02:15:47;21.10;99.90
6696;DHT22;3385;48.928;10.330;2022-07-23T02:18:13;21.10;99.90
6696;DHT22;3385;48.928;10.330;2022-07-23T02:20:39;21.10;99.90
6696;DHT22;3385;48.928;10.330;2022-07-23T02:23:05;21.10;99.90
6696;DHT22;3385;48.928;10.330;2022-07-23T02:25:32;21.10;99.90
6696;DHT22;3385;48.928;10.330;2022-07-23T02:27:58;21.10;99.90
6696;DHT22;3385;48.928;10.330;2022-07-23T02:30:24;21.20;99.90
6696;DHT22;3385;48.928;10.330;2022-07-23T02:32:50;21.20;99.90
6696;DHT22;3385;48.928;10.330;2022-07-23T02:35:16;21.30;99.90
6696;DHT22;3385;48.928;10.330;2022-07-23T02:37:41;21.30;99.90
6696;DHT22;3385;48.928;10.330;2022-07-23T02:40:07;21.40;99.90
6696;DHT22;3385;48.928;10.330;2022-07-23T02:42:33;21.50;99.90
6696;DHT22;3385;48.928;10.330;2022-07-23T02:44:59;21.60;99.90
6696;DHT22;3385;48.928;10.330;2022-07-23T02:47:25;21.60;99.90
6696;DHT22;3385;48.928;10.330;2022-07-23T02:49:50;21.70;99.90
6696;DHT22;3385;48.928;10.330;2022-07-23T02:52:16;21.70;99.90
6696;DHT22;3385;48.928;10.330;2022-07-23T02:54:42;21.70;99.90
6696;DHT22;3385;48.928;10.330;2022-07-23T02:57:07;21.60;99.90
6696;DHT22;3385;48.928;10.330;2022-07-23T02:59:33;21.60;99.90
6696;DHT22;3385;48.928;10.330;2022-07-23T03:01:59;21.60;99.90
6696;DHT22;3385;48.928;10.330;2022-07-23T03:04:25;21.50;99.90
6696;DHT22;3385;48.928;10.330;2022-07-23T03:06:51;21.40;99.90
6696;DHT22;3385;48.928;10.330;2022-07-23T03:09:17;21.40;99.90
6696;DHT22;3385;48.928;10.330;2022-07-23T03:11:43;21.30;99.90
6696;DHT22;3385;48.928;10.330;2022-07-23T03:14:08;21.20;99.90
6696;DHT22;3385;48.928;10.330;2022-07-23T03:16:34;21.20;99.90
6696;DHT22;3385;48.928;10.330;2022-07-23T03:19:00;21.10;99.90
6696;DHT22;3385;48.928;10.330;2022-07-23T03:21:26;21.10;99.90
6696;DHT22;3385;48.928;10.330;2022-07-23T03:23:55;21.00;99.90
6696;DHT22;3385;48.928;10.330;2022-07-23T03:26:21;21.00;99.90
6696;DHT22;3385;48.928;10.330;2022-07-23T03:28:51;21.00;99.90
6696;DHT22;3385;48.928;10.330;2022-07-23T03:31:17;21.00;99.90
6696;DHT22;3385;48.928;10.330;2022-07-23T03:33:43;21.00;99.90
6696;DHT22;3385;48.928;10.330;2022-07-23T03:36:09;21.10;99.90
6696;DHT22;3385;48.928;10.330;2022-07-23T03:38:37;21.10;99.90
6696;DHT22;3385;48.928;10.330;2022-07-23T03:41:03;21.10;99.90
6696;DHT22;3385;48.928;10.330;2022-07-23T03:43:29;21.10;99.90
6696;DHT22;3385;48.928;10.330;2022-07-23T03:45:54;21.10;99.90
6696;DHT22;3385;48.928;10.330;2022-07-23T03:48:20;21.00;99.90
6696;DHT22;3385;48.928;10.330;2022-07-23T03:50:46;20.90;99.90
6696;DHT22;3385;48.928;10.330;2022-07-23T03:53:12;20.80;99.90
6696;DHT22;3385;48.928;10.330;2022-07-23T03:55:38;20.70;99.90
6696;DHT22;3385;48.928;10.330;2022-07-23T03:58:04;20.60;99.90
6696;DHT22;3385;48.928;10.330;2022-07-23T04:00:29;20.50;99.90
6696;DHT22;3385;48.928;10.330;2022-07-23T04:02:55;20.50;99.90
6696;DHT22;3385;48.928;10.330;2022-07-23T04:05:21;20.40;99.90
6696;DHT22;3385;48.928;10.330;2022-07-23T04:07:47;20.50;99.90
6696;DHT22;3385;48.928;10.330;2022-07-23T04:10:12;20.50;99.90
6696;DHT22;3385;48.928;10.330;2022-07-23T04:12:38;20.50;99.90
6696;DHT22;3385;48.928;10.330;2022-07-23T04:15:04;20.50;99.90
6696;DHT22;3385;48.928;10.330;2022-07-23T04:17:32;20.60;99.90
6696;DHT22;3385;48.928;10.330;2022-07-23T04:19:58;20.60;99.90
6696;DHT22;3385;48.928;10.330;2022-07-23T04:22:26;20.60;99.90
6696;DHT22;3385;48.928;10.330;2022-07-23T04:24:52;20.60;99.90
6696;DHT22;3385;48.928;10.330;2022-07-23T04:27:18;20.60;99.90
6696;DHT22;3385;48.928;10.330;2022-07-23T04:29:44;20.70;99.90
6696;DHT22;3385;48.928;10.330;2022-07-23T04:32:10;20.70;99.90
6696;DHT22;3385;48.928;10.330;2022-07-23T04:34:35;20.70;99.90
6696;DHT22;3385;48.928;10.330;2022-07-23T04:37:01;20.70;99.90
6696;DHT22;3385;48.928;10.330;2022-07-23T04:39:27;20.70;99.90
6696;DHT22;3385;48.928;10.330;2022-07-23T04:41:53;20.60;99.90
6696;DHT22;3385;48.928;10.330;2022-07-23T04:44:21;20.60;99.90
6696;DHT22;3385;48.928;10.330;2022-07-23T04:46:46;20.70;99.90
6696;DHT22;3385;48.928;10.330;2022-07-23T04:49:12;20.70;99.90
6696;DHT22;3385;48.928;10.330;2022-07-23T04:51:38;20.70;99.90
6696;DHT22;3385;48.928;10.330;2022-07-23T04:54:05;20.70;99.90
6696;DHT22;3385;48.928;10.330;2022-07-23T04:56:31;20.80;99.90
6696;DHT22;3385;48.928;10.330;2022-07-23T04:58:57;20.80;99.90
6696;DHT22;3385;48.928;10.330;2022-07-23T05:01:22;20.80;99.90
6696;DHT22;3385;48.928;10.330;2022-07-23T05:03:48;20.90;99.90
6696;DHT22;3385;48.928;10.330;2022-07-23T05:06:15;21.00;99.90
6696;DHT22;3385;48.928;10.330;2022-07-23T05:08:40;21.00;99.90
6696;DHT22;3385;48.928;10.330;2022-07-23T05:11:06;21.20;99.90
6696;DHT22;3385;48.928;10.330;2022-07-23T05:13:32;21.30;99.90
6696;DHT22;3385;48.928;10.330;2022-07-23T05:16:00;21.40;99.90
6696;DHT22;3385;48.928;10.330;2022-07-23T05:18:26;21.40;99.90
6696;DHT22;3385;48.928;10.330;2022-07-23T05:20:51;21.50;99.90
6696;DHT22;3385;48.928;10.330;2022-07-23T05:23:17;21.60;99.90
6696;DHT22;3385;48.928;10.330;2022-07-23T05:25:46;21.60;99.90
6696;DHT22;3385;48.928;10.330;2022-07-23T05:28:11;21.70;99.90
6696;DHT22;3385;48.928;10.330;2022-07-23T05:30:37;21.70;99.90
6696;DHT22;3385;48.928;10.330;2022-07-23T05:33:03;21.70;99.90
6696;DHT22;3385;48.928;10.330;2022-07-23T05:35:29;21.80;99.90
6696;DHT22;3385;48.928;10.330;2022-07-23T05:37:54;21.90;99.90
6696;DHT22;3385;48.928;10.330;2022-07-23T05:40:20;21.90;99.90
6696;DHT22;3385;48.928;10.330;2022-07-23T05:42:46;22.00;99.90
6696;DHT22;3385;48.928;10.330;2022-07-23T05:45:11;22.00;99.90
6696;DHT22;3385;48.928;10.330;2022-07-23T05:47:44;22.00;99.90
6696;DHT22;3385;48.928;10.330;2022-07-23T05:50:11;22.00;99.90
6696;DHT22;3385;48.928;10.330;2022-07-23T05:52:38;22.10;99.90
6696;DHT22;3385;48.928;10.330;2022-07-23T05:55:04;22.20;99.90
6696;DHT22;3385;48.928;10.330;2022-07-23T05:57:30;22.30;99.90
6696;DHT22;3385;48.928;10.330;2022-07-23T05:59:56;22.40;99.90
6696;DHT22;3385;48.928;10.330;2022-07-23T06:02:21;22.50;99.90
6696;DHT22;3385;48.928;10.330;2022-07-23T06:04:47;22.60;99.90
6696;DHT22;3385;48.928;10.330;2022-07-23T06:07:13;22.80;99.90
6696;DHT22;3385;48.928;10.330;2022-07-23T06:09:39;22.80;99.90
6696;DHT22;3385;48.928;10.330;2022-07-23T06:12:05;22.90;99.90
6696;DHT22;3385;48.928;10.330;2022-07-23T06:14:31;23.10;99.90
6696;DHT22;3385;48.928;10.330;2022-07-23T06:16:56;23.20;99.90
6696;DHT22;3385;48.928;10.330;2022-07-23T06:19:22;23.40;99.90
6696;DHT22;3385;48.928;10.330;2022-07-23T06:21:48;23.60;99.90
6696;DHT22;3385;48.928;10.330;2022-07-23T06:24:14;23.70;99.90
6696;DHT22;3385;48.928;10.330;2022-07-23T06:26:39;23.80;99.90
6696;DHT22;3385;48.928;10.330;2022-07-23T06:29:05;23.80;99.90
6696;DHT22;3385;48.928;10.330;2022-07-23T06:31:31;23.90;99.90
6696;DHT22;3385;48.928;10.330;2022-07-23T06:33:56;23.90;99.90
6696;DHT22;3385;48.928;10.330;2022-07-23T06:36:22;24.00;99.90
6696;DHT22;3385;48.928;10.330;2022-07-23T06:38:48;24.10;99.90
6696;DHT22;3385;48.928;10.330;2022-07-23T06:41:13;24.10;99.90
6696;DHT22;3385;48.928;10.330;2022-07-23T06:43:39;24.10;99.90
6696;DHT22;3385;48.928;10.330;2022-07-23T06:46:05;24.10;99.90
6696;DHT22;3385;48.928;10.330;2022-07-23T06:48:31;24.10;99.90
6696;DHT22;3385;48.928;10.330;2022-07-23T06:50:59;24.00;99.90
6696;DHT22;3385;48.928;10.330;2022-07-23T06:53:25;24.00;99.90
6696;DHT22;3385;48.928;10.330;2022-07-23T06:55:51;24.00;99.90
6696;DHT22;3385;48.928;10.330;2022-07-23T06:58:16;23.90;99.90
6696;DHT22;3385;48.928;10.330;2022-07-23T07:00:43;23.90;99.90
6696;DHT22;3385;48.928;10.330;2022-07-23T07:03:09;23.90;99.90
6696;DHT22;3385;48.928;10.330;2022-07-23T07:05:35;24.00;99.90
6696;DHT22;3385;48.928;10.330;2022-07-23T07:08:01;24.00;99.90
6696;DHT22;3385;48.928;10.330;2022-07-23T07:10:26;24.10;99.90
6696;DHT22;3385;48.928;10.330;2022-07-23T07:12:52;24.10;99.90
6696;DHT22;3385;48.928;10.330;2022-07-23T07:15:18;24.00;99.90
6696;DHT22;3385;48.928;10.330;2022-07-23T07:17:44;24.00;99.90
6696;DHT22;3385;48.928;10.330;2022-07-23T07:20:10;23.90;99.90
6696;DHT22;3385;48.928;10.330;2022-07-23T07:22:36;23.90;99.90
6696;DHT22;3385;48.928;10.330;2022-07-23T07:25:02;23.70;99.90
6696;DHT22;3385;48.928;10.330;2022-07-23T07:27:28;23.60;99.90
6696;DHT22;3385;48.928;10.330;2022-07-23T07:29:54;23.50;99.90
6696;DHT22;3385;48.928;10.330;2022-07-23T07:32:19;23.50;99.90
6696;DHT22;3385;48.928;10.330;2022-07-23T07:34:45;23.60;99.90
6696;DHT22;3385;48.928;10.330;2022-07-23T07:37:11;23.60;99.90
6696;DHT22;3385;48.928;10.330;2022-07-23T07:39:37;23.70;99.90
6696;DHT22;3385;48.928;10.330;2022-07-23T07:42:02;23.80;99.90
6696;DHT22;3385;48.928;10.330;2022-07-23T07:44:28;24.00;99.90
6696;DHT22;3385;48.928;10.330;2022-07-23T07:46:54;24.10;99.90
6696;DHT22;3385;48.928;10.330;2022-07-23T07:49:20;24.30;99.90
6696;DHT22;3385;48.928;10.330;2022-07-23T07:51:45;24.50;99.90
6696;DHT22;3385;48.928;10.330;2022-07-23T07:54:12;24.70;99.90
6696;DHT22;3385;48.928;10.330;2022-07-23T07:56:38;24.90;99.90
6696;DHT22;3385;48.928;10.330;2022-07-23T07:59:04;24.90;99.90
6696;DHT22;3385;48.928;10.330;2022-07-23T08:01:30;24.90;99.90
6696;DHT22;3385;48.928;10.330;2022-07-23T08:03:55;25.00;99.90
6696;DHT22;3385;48.928;10.330;2022-07-23T08:06:21;25.00;99.90
6696;DHT22;3385;48.928;10.330;2022-07-23T08:08:48;25.30;99.90
6696;DHT22;3385;48.928;10.330;2022-07-23T08:11:13;25.70;99.90
6696;DHT22;3385;48.928;10.330;2022-07-23T08:13:39;25.90;99.90
6696;DHT22;3385;48.928;10.330;2022-07-23T08:16:05;26.00;99.90
6696;DHT22;3385;48.928;10.330;2022-07-23T08:18:31;26.00;99.90
6696;DHT22;3385;48.928;10.330;2022-07-23T08:20:57;25.90;99.90
6696;DHT22;3385;48.928;10.330;2022-07-23T08:23:22;25.80;99.90
6696;DHT22;3385;48.928;10.330;2022-07-23T08:25:49;25.60;99.90
6696;DHT22;3385;48.928;10.330;2022-07-23T08:28:15;25.50;99.90
6696;DHT22;3385;48.928;10.330;2022-07-23T08:30:43;25.50;99.90
6696;DHT22;3385;48.928;10.330;2022-07-23T08:33:13;25.70;99.90
6696;DHT22;3385;48.928;10.330;2022-07-23T08:35:41;25.90;99.90
6696;DHT22;3385;48.928;10.330;2022-07-23T08:38:09;26.20;99.90
6696;DHT22;3385;48.928;10.330;2022-07-23T08:40:38;26.50;99.90
6696;DHT22;3385;48.928;10.330;2022-07-23T08:43:07;26.60;99.90
6696;DHT22;3385;48.928;10.330;2022-07-23T08:45:39;26.60;99.90
6696;DHT22;3385;48.928;10.330;2022-07-23T08:48:12;26.60;99.90
6696;DHT22;3385;48.928;10.330;2022-07-23T08:50:45;26.60;99.90
6696;DHT22;3385;48.928;10.330;2022-07-23T08:53:12;26.50;99.90
6696;DHT22;3385;48.928;10.330;2022-07-23T08:55:38;26.40;99.90
6696;DHT22;3385;48.928;10.330;2022-07-23T08:58:04;26.30;99.90
6696;DHT22;3385;48.928;10.330;2022-07-23T09:00:30;26.10;99.90
6696;DHT22;3385;48.928;10.330;2022-07-23T09:02:56;25.90;99.90
6696;DHT22;3385;48.928;10.330;2022-07-23T09:05:22;25.70;99.90
6696;DHT22;3385;48.928;10.330;2022-07-23T09:08:05;25.50;99.90
6696;DHT22;3385;48.928;10.330;2022-07-23T09:10:49;25.30;99.90
6696;DHT22;3385;48.928;10.330;2022-07-23T09:13:38;25.20;99.90
6696;DHT22;3385;48.928;10.330;2022-07-23T09:18:43;25.20;99.90
6696;DHT22;3385;48.928;10.330;2022-07-23T09:21:14;25.20;99.90
6696;DHT22;3385;48.928;10.330;2022-07-23T09:24:00;25.20;99.90
6696;DHT22;3385;48.928;10.330;2022-07-23T09:26:29;25.30;99.90
6696;DHT22;3385;48.928;10.330;2022-07-23T09:29:05;25.50;99.90
6696;DHT22;3385;48.928;10.330;2022-07-23T09:31:34;25.80;99.90
6696;DHT22;3385;48.928;10.330;2022-07-23T09:36:46;26.10;99.90
6696;DHT22;3385;48.928;10.330;2022-07-23T09:39:13;26.30;99.90
6696;DHT22;3385;48.928;10.330;2022-07-23T09:41:44;26.50;99.90
6696;DHT22;3385;48.928;10.330;2022-07-23T09:44:14;26.70;99.70
6696;DHT22;3385;48.928;10.330;2022-07-23T09:46:41;26.90;98.20
6696;DHT22;3385;48.928;10.330;2022-07-23T09:49:22;27.30;97.90
6696;DHT22;3385;48.928;10.330;2022-07-23T09:51:58;27.40;97.10
6696;DHT22;3385;48.928;10.330;2022-07-23T09:54:33;27.40;96.70
6696;DHT22;3385;48.928;10.330;2022-07-23T09:57:11;27.60;96.00
6696;DHT22;3385;48.928;10.330;2022-07-23T09:59:41;27.80;95.60
6696;DHT22;3385;48.928;10.330;2022-07-23T10:02:10;28.00;94.50
6696;DHT22;3385;48.928;10.330;2022-07-23T10:04:37;28.20;91.90
6696;DHT22;3385;48.928;10.330;2022-07-23T10:07:06;28.30;92.00
6696;DHT22;3385;48.928;10.330;2022-07-23T10:09:35;28.30;93.00
6696;DHT22;3385;48.928;10.330;2022-07-23T10:12:12;28.30;91.70
6696;DHT22;3385;48.928;10.330;2022-07-23T10:14:39;28.10;92.80
6696;DHT22;3385;48.928;10.330;2022-07-23T10:17:06;27.90;91.90
6696;DHT22;3385;48.928;10.330;2022-07-23T10:19:32;27.90;91.50
6696;DHT22;3385;48.928;10.330;2022-07-23T10:22:10;28.10;91.60
6696;DHT22;3385;48.928;10.330;2022-07-23T10:27:47;28.60;90.70
6696;DHT22;3385;48.928;10.330;2022-07-23T10:30:31;28.60;90.40
6696;DHT22;3385;48.928;10.330;2022-07-23T10:33:27;28.40;91.90
6696;DHT22;3385;48.928;10.330;2022-07-23T10:36:03;28.30;91.20
6696;DHT22;3385;48.928;10.330;2022-07-23T10:39:05;28.20;91.90
6696;DHT22;3385;48.928;10.330;2022-07-23T10:41:41;28.20;92.30
6696;DHT22;3385;48.928;10.330;2022-07-23T10:44:13;28.30;93.00
6696;DHT22;3385;48.928;10.330;2022-07-23T10:49:42;28.80;91.70
6696;DHT22;3385;48.928;10.330;2022-07-23T10:54:50;28.80;91.30
6696;DHT22;3385;48.928;10.330;2022-07-23T10:57:24;28.90;91.50
6696;DHT22;3385;48.928;10.330;2022-07-23T11:02:34;29.20;88.90
6696;DHT22;3385;48.928;10.330;2022-07-23T11:07:31;29.60;85.80
6696;DHT22;3385;48.928;10.330;2022-07-23T11:09:57;29.70;85.80
6696;DHT22;3385;48.928;10.330;2022-07-23T11:15:08;30.10;77.70
6696;DHT22;3385;48.928;10.330;2022-07-23T11:18:18;29.80;79.70
6696;DHT22;3385;48.928;10.330;2022-07-23T11:20:27;29.80;77.90
6696;DHT22;3385;48.928;10.330;2022-07-23T11:22:58;29.80;80.10
6696;DHT22;3385;48.928;10.330;2022-07-23T11:28:08;29.40;78.10
6696;DHT22;3385;48.928;10.330;2022-07-23T11:30:40;29.10;85.20
6696;DHT22;3385;48.928;10.330;2022-07-23T11:35:34;29.20;83.80
6696;DHT22;3385;48.928;10.330;2022-07-23T11:38:21;29.40;85.90
6696;DHT22;3385;48.928;10.330;2022-07-23T11:40:49;29.90;81.50
6696;DHT22;3385;48.928;10.330;2022-07-23T11:43:15;30.00;80.60
6696;DHT22;3385;48.928;10.330;2022-07-23T11:45:44;29.80;81.80
6696;DHT22;3385;48.928;10.330;2022-07-23T11:48:18;29.70;79.00
6696;DHT22;3385;48.928;10.330;2022-07-23T11:50:45;29.60;76.70
6696;DHT22;3385;48.928;10.330;2022-07-23T11:53:11;29.50;79.60
6696;DHT22;3385;48.928;10.330;2022-07-23T11:55:37;29.40;83.00
6696;DHT22;3385;48.928;10.330;2022-07-23T11:58:03;29.30;82.30
6696;DHT22;3385;48.928;10.330;2022-07-23T12:00:30;29.10;82.20
6696;DHT22;3385;48.928;10.330;2022-07-23T12:02:58;29.00;82.50
6696;DHT22;3385;48.928;10.330;2022-07-23T12:07:55;29.10;85.40
6696;DHT22;3385;48.928;10.330;2022-07-23T12:13:08;30.10;78.30
6696;DHT22;3385;48.928;10.330;2022-07-23T12:15:47;31.00;80.30
6696;DHT22;3385;48.928;10.330;2022-07-23T12:18:17;32.70;69.40
6696;DHT22;3385;48.928;10.330;2022-07-23T12:20:46;33.80;68.50
6696;DHT22;3385;48.928;10.330;2022-07-23T12:23:14;34.60;65.90
6696;DHT22;3385;48.928;10.330;2022-07-23T12:25:42;35.40;62.40
6696;DHT22;3385;48.928;10.330;2022-07-23T12:28:18;35.70;59.10
6696;DHT22;3385;48.928;10.330;2022-07-23T12:30:52;35.10;59.80
6696;DHT22;3385;48.928;10.330;2022-07-23T12:33:24;34.40;60.00
6696;DHT22;3385;48.928;10.330;2022-07-23T12:35:53;34.00;60.50
6696;DHT22;3385;48.928;10.330;2022-07-23T12:38:21;33.80;60.80
6696;DHT22;3385;48.928;10.330;2022-07-23T12:40:49;33.30;61.90
6696;DHT22;3385;48.928;10.330;2022-07-23T12:43:30;33.60;60.80
6696;DHT22;3385;48.928;10.330;2022-07-23T12:46:09;33.10;61.80
6696;DHT22;3385;48.928;10.330;2022-07-23T12:51:21;33.60;62.70
6696;DHT22;3385;48.928;10.330;2022-07-23T12:53:49;35.10;59.80
6696;DHT22;3385;48.928;10.330;2022-07-23T12:56:18;36.00;57.90
6696;DHT22;3385;48.928;10.330;2022-07-23T13:01:31;36.80;56.10
6696;DHT22;3385;48.928;10.330;2022-07-23T13:03:59;36.30;56.50
6696;DHT22;3385;48.928;10.330;2022-07-23T13:06:27;35.90;54.40
6696;DHT22;3385;48.928;10.330;2022-07-23T13:08:53;35.70;57.40
6696;DHT22;3385;48.928;10.330;2022-07-23T13:11:19;36.30;53.70
6696;DHT22;3385;48.928;10.330;2022-07-23T13:13:45;35.60;56.70
6696;DHT22;3385;48.928;10.330;2022-07-23T13:16:10;36.10;55.90
6696;DHT22;3385;48.928;10.330;2022-07-23T13:18:36;36.50;55.20
6696;DHT22;3385;48.928;10.330;2022-07-23T13:21:02;36.90;55.90
6696;DHT22;3385;48.928;10.330;2022-07-23T13:23:29;38.00;53.10
6696;DHT22;3385;48.928;10.330;2022-07-23T13:25:55;38.20;52.00
6696;DHT22;3385;48.928;10.330;2022-07-23T13:28:22;37.70;50.80
6696;DHT22;3385;48.928;10.330;2022-07-23T13:30:49;36.10;51.30
6696;DHT22;3385;48.928;10.330;2022-07-23T13:33:23;34.60;54.40
6696;DHT22;3385;48.928;10.330;2022-07-23T13:35:50;33.90;56.90
6696;DHT22;3385;48.928;10.330;2022-07-23T13:38:18;33.30;58.10
6696;DHT22;3385;48.928;10.330;2022-07-23T13:40:46;33.30;57.90
6696;DHT22;3385;48.928;10.330;2022-07-23T13:43:15;34.50;56.20
6696;DHT22;3385;48.928;10.330;2022-07-23T13:45:41;34.70;55.60
6696;DHT22;3385;48.928;10.330;2022-07-23T13:48:12;34.40;56.40
6696;DHT22;3385;48.928;10.330;2022-07-23T13:50:38;34.20;55.80
6696;DHT22;3385;48.928;10.330;2022-07-23T13:53:05;34.80;56.40
6696;DHT22;3385;48.928;10.330;2022-07-23T13:55:33;35.50;56.10
6696;DHT22;3385;48.928;10.330;2022-07-23T13:57:59;36.40;54.50
6696;DHT22;3385;48.928;10.330;2022-07-23T14:00:26;37.00;52.30
6696;DHT22;3385;48.928;10.330;2022-07-23T14:02:52;37.10;52.00
6696;DHT22;3385;48.928;10.330;2022-07-23T14:05:18;37.60;52.60
6696;DHT22;3385;48.928;10.330;2022-07-23T14:07:44;38.50;50.50
6696;DHT22;3385;48.928;10.330;2022-07-23T14:10:10;38.60;49.20
6696;DHT22;3385;48.928;10.330;2022-07-23T14:12:36;39.20;48.90
6696;DHT22;3385;48.928;10.330;2022-07-23T14:15:04;39.50;47.50
6696;DHT22;3385;48.928;10.330;2022-07-23T14:17:30;39.70;47.60
6696;DHT22;3385;48.928;10.330;2022-07-23T14:19:57;40.10;46.30
6696;DHT22;3385;48.928;10.330;2022-07-23T14:22:23;40.10;45.40
6696;DHT22;3385;48.928;10.330;2022-07-23T14:24:49;39.80;46.00
6696;DHT22;3385;48.928;10.330;2022-07-23T14:27:15;39.80;45.20
6696;DHT22;3385;48.928;10.330;2022-07-23T14:29:41;40.00;45.60
6696;DHT22;3385;48.928;10.330;2022-07-23T14:32:07;40.30;45.20
6696;DHT22;3385;48.928;10.330;2022-07-23T14:34:34;39.60;44.90
6696;DHT22;3385;48.928;10.330;2022-07-23T14:36:59;38.40;45.80
6696;DHT22;3385;48.928;10.330;2022-07-23T14:39:27;38.30;46.90
6696;DHT22;3385;48.928;10.330;2022-07-23T14:41:53;38.90;47.00
6696;DHT22;3385;48.928;10.330;2022-07-23T14:44:18;39.80;44.70
6696;DHT22;3385;48.928;10.330;2022-07-23T14:46:44;40.40;43.40
6696;DHT22;3385;48.928;10.330;2022-07-23T14:49:11;40.40;42.50
6696;DHT22;3385;48.928;10.330;2022-07-23T14:51:37;40.50;43.30
6696;DHT22;3385;48.928;10.330;2022-07-23T14:54:04;40.80;42.30
6696;DHT22;3385;48.928;10.330;2022-07-23T14:56:30;40.30;43.30
6696;DHT22;3385;48.928;10.330;2022-07-23T14:58:55;39.80;43.30
6696;DHT22;3385;48.928;10.330;2022-07-23T15:01:22;39.20;43.70
6696;DHT22;3385;48.928;10.330;2022-07-23T15:03:49;39.10;43.90
6696;DHT22;3385;48.928;10.330;2022-07-23T15:06:16;38.90;44.90
6696;DHT22;3385;48.928;10.330;2022-07-23T15:08:42;38.40;45.10
6696;DHT22;3385;48.928;10.330;2022-07-23T15:11:08;37.80;46.10
6696;DHT22;3385;48.928;10.330;2022-07-23T15:13:36;37.10;46.90
6696;DHT22;3385;48.928;10.330;2022-07-23T15:16:03;36.10;46.80
6696;DHT22;3385;48.928;10.330;2022-07-23T15:18:29;35.60;48.60
6696;DHT22;3385;48.928;10.330;2022-07-23T15:20:55;35.70;48.60
6696;DHT22;3385;48.928;10.330;2022-07-23T15:23:21;35.90;48.30
6696;DHT22;3385;48.928;10.330;2022-07-23T15:25:47;35.70;48.30
6696;DHT22;3385;48.928;10.330;2022-07-23T15:28:13;35.50;48.10
6696;DHT22;3385;48.928;10.330;2022-07-23T15:30:38;34.70;49.30
6696;DHT22;3385;48.928;10.330;2022-07-23T15:33:05;34.30;51.10
6696;DHT22;3385;48.928;10.330;2022-07-23T15:35:31;34.00;51.90
6696;DHT22;3385;48.928;10.330;2022-07-23T15:37:57;34.10;52.00
6696;DHT22;3385;48.928;10.330;2022-07-23T15:40:23;34.10;51.40
6696;DHT22;3385;48.928;10.330;2022-07-23T15:42:49;33.90;52.60
6696;DHT22;3385;48.928;10.330;2022-07-23T15:45:15;34.20;52.00
6696;DHT22;3385;48.928;10.330;2022-07-23T15:47:42;34.20;51.20
6696;DHT22;3385;48.928;10.330;2022-07-23T15:50:08;33.30;52.10
6696;DHT22;3385;48.928;10.330;2022-07-23T15:52:35;32.20;53.70
6696;DHT22;3385;48.928;10.330;2022-07-23T15:55:01;31.20;57.20
6696;DHT22;3385;48.928;10.330;2022-07-23T15:57:27;30.90;59.10
6696;DHT22;3385;48.928;10.330;2022-07-23T15:59:53;31.50;58.80
6696;DHT22;3385;48.928;10.330;2022-07-23T16:02:22;32.10;58.00
6696;DHT22;3385;48.928;10.330;2022-07-23T16:04:48;32.30;55.30
6696;DHT22;3385;48.928;10.330;2022-07-23T16:07:16;32.20;56.10
6696;DHT22;3385;48.928;10.330;2022-07-23T16:09:43;32.00;56.30
6696;DHT22;3385;48.928;10.330;2022-07-23T16:12:09;31.70;57.60
6696;DHT22;3385;48.928;10.330;2022-07-23T16:14:34;31.40;59.70
6696;DHT22;3385;48.928;10.330;2022-07-23T16:17:00;31.30;57.60
6696;DHT22;3385;48.928;10.330;2022-07-23T16:19:26;30.90;58.50
6696;DHT22;3385;48.928;10.330;2022-07-23T16:21:52;30.50;59.40
6696;DHT22;3385;48.928;10.330;2022-07-23T16:24:18;30.20;61.20